< < Back
Terminal Aerodrome Forecast


Current Version              Previous Versions:   1  2  3  4  5  6  7  8  9  

Terminal Aerodrome Forecast

704
FTUS42 KILM 012300
TAFILM
TAF
KILM 012321Z 0200/0224 VRB02KT P6SM SKC
     FM020800 00000KT 4SM BR FEW003
     FM021400 VRB04KT P6SM FEW040=

Latest METAR

240
SAUS70 KWBC 020400 RRD
MTRILM
METAR KILM 020353Z AUTO 00000KT 10SM CLR 18/18 A3003 RMK AO2 SLP169
T01830178


USA.gov is the U.S. government's official web portal to all federal, state and local government web resources and services.